sensor_id;sensor_type;location;lat;lon;timestamp;P1;durP1;ratioP1;P2;durP2;ratioP2
20065;SDS011;10193;48.884;9.182;2023-04-01T00:01:17;0.68;;;0.30;;
20065;SDS011;10193;48.884;9.182;2023-04-01T00:03:44;0.63;;;0.30;;
20065;SDS011;10193;48.884;9.182;2023-04-01T00:06:11;0.80;;;0.30;;
20065;SDS011;10193;48.884;9.182;2023-04-01T00:08:39;0.55;;;0.40;;
20065;SDS011;10193;48.884;9.182;2023-04-01T00:11:06;0.85;;;0.40;;
20065;SDS011;10193;48.884;9.182;2023-04-01T00:13:33;0.47;;;0.47;;
20065;SDS011;10193;48.884;9.182;2023-04-01T00:16:00;1.10;;;0.38;;
20065;SDS011;10193;48.884;9.182;2023-04-01T00:18:29;1.55;;;0.30;;
20065;SDS011;10193;48.884;9.182;2023-04-01T00:20:56;0.52;;;0.40;;
20065;SDS011;10193;48.884;9.182;2023-04-01T00:23:23;0.35;;;0.30;;
20065;SDS011;10193;48.884;9.182;2023-04-01T00:25:50;0.52;;;0.47;;
20065;SDS011;10193;48.884;9.182;2023-04-01T00:28:17;0.80;;;0.50;;
20065;SDS011;10193;48.884;9.182;2023-04-01T00:30:45;0.47;;;0.30;;
20065;SDS011;10193;48.884;9.182;2023-04-01T00:33:12;1.05;;;0.40;;
20065;SDS011;10193;48.884;9.182;2023-04-01T00:35:40;1.45;;;0.57;;
20065;SDS011;10193;48.884;9.182;2023-04-01T00:38:07;1.30;;;0.40;;
20065;SDS011;10193;48.884;9.182;2023-04-01T00:40:34;0.63;;;0.30;;
20065;SDS011;10193;48.884;9.182;2023-04-01T00:43:05;0.93;;;0.40;;
20065;SDS011;10193;48.884;9.182;2023-04-01T00:45:37;0.80;;;0.40;;
20065;SDS011;10193;48.884;9.182;2023-04-01T00:48:07;0.75;;;0.55;;
20065;SDS011;10193;48.884;9.182;2023-04-01T00:50:36;0.93;;;0.40;;
20065;SDS011;10193;48.884;9.182;2023-04-01T00:53:07;1.83;;;0.50;;
20065;SDS011;10193;48.884;9.182;2023-04-01T00:55:35;0.82;;;0.50;;
20065;SDS011;10193;48.884;9.182;2023-04-01T00:58:07;0.70;;;0.35;;
20065;SDS011;10193;48.884;9.182;2023-04-01T01:00:39;0.68;;;0.40;;
20065;SDS011;10193;48.884;9.182;2023-04-01T01:03:06;1.23;;;0.47;;
20065;SDS011;10193;48.884;9.182;2023-04-01T01:05:36;1.23;;;0.47;;
20065;SDS011;10193;48.884;9.182;2023-04-01T01:08:19;1.75;;;0.45;;
20065;SDS011;10193;48.884;9.182;2023-04-01T01:10:56;1.02;;;0.45;;
20065;SDS011;10193;48.884;9.182;2023-04-01T01:13:24;1.48;;;0.50;;
20065;SDS011;10193;48.884;9.182;2023-04-01T01:15:57;0.57;;;0.40;;
20065;SDS011;10193;48.884;9.182;2023-04-01T01:18:31;1.15;;;0.43;;
20065;SDS011;10193;48.884;9.182;2023-04-01T01:24:11;0.82;;;0.38;;
20065;SDS011;10193;48.884;9.182;2023-04-01T01:26:50;1.02;;;0.40;;
20065;SDS011;10193;48.884;9.182;2023-04-01T01:32:30;0.95;;;0.50;;
20065;SDS011;10193;48.884;9.182;2023-04-01T01:35:16;1.42;;;0.70;;
20065;SDS011;10193;48.884;9.182;2023-04-01T01:37:49;0.47;;;0.30;;
20065;SDS011;10193;48.884;9.182;2023-04-01T01:40:20;0.75;;;0.40;;
20065;SDS011;10193;48.884;9.182;2023-04-01T01:42:48;1.05;;;0.35;;
20065;SDS011;10193;48.884;9.182;2023-04-01T01:45:18;1.15;;;0.40;;
20065;SDS011;10193;48.884;9.182;2023-04-01T01:47:48;0.75;;;0.35;;
20065;SDS011;10193;48.884;9.182;2023-04-01T01:50:18;0.50;;;0.50;;
20065;SDS011;10193;48.884;9.182;2023-04-01T01:52:46;0.90;;;0.45;;
20065;SDS011;10193;48.884;9.182;2023-04-01T01:55:23;0.63;;;0.30;;
20065;SDS011;10193;48.884;9.182;2023-04-01T01:57:52;0.90;;;0.50;;
20065;SDS011;10193;48.884;9.182;2023-04-01T02:00:20;0.35;;;0.35;;
20065;SDS011;10193;48.884;9.182;2023-04-01T02:02:47;0.57;;;0.32;;
20065;SDS011;10193;48.884;9.182;2023-04-01T02:05:16;0.40;;;0.30;;
20065;SDS011;10193;48.884;9.182;2023-04-01T02:07:48;0.52;;;0.30;;
20065;SDS011;10193;48.884;9.182;2023-04-01T02:10:19;0.70;;;0.40;;
20065;SDS011;10193;48.884;9.182;2023-04-01T02:12:48;0.50;;;0.30;;
20065;SDS011;10193;48.884;9.182;2023-04-01T02:15:16;0.52;;;0.38;;
20065;SDS011;10193;48.884;9.182;2023-04-01T02:17:46;0.30;;;0.30;;
20065;SDS011;10193;48.884;9.182;2023-04-01T02:20:16;1.00;;;0.50;;
20065;SDS011;10193;48.884;9.182;2023-04-01T02:22:48;0.30;;;0.30;;
20065;SDS011;10193;48.884;9.182;2023-04-01T02:25:17;0.65;;;0.40;;
20065;SDS011;10193;48.884;9.182;2023-04-01T02:27:46;1.38;;;0.32;;
20065;SDS011;10193;48.884;9.182;2023-04-01T02:30:14;1.88;;;0.43;;
20065;SDS011;10193;48.884;9.182;2023-04-01T02:32:42;1.02;;;0.20;;
20065;SDS011;10193;48.884;9.182;2023-04-01T02:35:10;0.35;;;0.30;;
20065;SDS011;10193;48.884;9.182;2023-04-01T02:37:40;0.20;;;0.20;;
20065;SDS011;10193;48.884;9.182;2023-04-01T02:40:08;1.40;;;0.30;;
20065;SDS011;10193;48.884;9.182;2023-04-01T02:42:37;0.25;;;0.25;;
20065;SDS011;10193;48.884;9.182;2023-04-01T02:45:05;0.70;;;0.32;;
20065;SDS011;10193;48.884;9.182;2023-04-01T02:47:32;0.28;;;0.28;;
20065;SDS011;10193;48.884;9.182;2023-04-01T02:49:59;0.20;;;0.20;;
20065;SDS011;10193;48.884;9.182;2023-04-01T02:52:26;1.48;;;0.30;;
20065;SDS011;10193;48.884;9.182;2023-04-01T02:54:54;0.63;;;0.38;;
20065;SDS011;10193;48.884;9.182;2023-04-01T02:57:22;1.27;;;0.50;;
20065;SDS011;10193;48.884;9.182;2023-04-01T02:59:49;0.30;;;0.20;;
20065;SDS011;10193;48.884;9.182;2023-04-01T03:02:16;0.47;;;0.35;;
20065;SDS011;10193;48.884;9.182;2023-04-01T03:04:43;0.30;;;0.30;;
20065;SDS011;10193;48.884;9.182;2023-04-01T03:07:10;0.40;;;0.30;;
20065;SDS011;10193;48.884;9.182;2023-04-01T03:09:37;0.17;;;0.17;;
20065;SDS011;10193;48.884;9.182;2023-04-01T03:12:06;0.68;;;0.30;;
20065;SDS011;10193;48.884;9.182;2023-04-01T03:14:33;0.47;;;0.47;;
20065;SDS011;10193;48.884;9.182;2023-04-01T03:16:59;0.68;;;0.30;;
20065;SDS011;10193;48.884;9.182;2023-04-01T03:19:26;0.45;;;0.30;;
20065;SDS011;10193;48.884;9.182;2023-04-01T03:21:53;0.40;;;0.30;;
20065;SDS011;10193;48.884;9.182;2023-04-01T03:24:19;1.23;;;0.30;;
20065;SDS011;10193;48.884;9.182;2023-04-01T03:26:46;0.25;;;0.20;;
20065;SDS011;10193;48.884;9.182;2023-04-01T03:29:14;0.32;;;0.30;;
20065;SDS011;10193;48.884;9.182;2023-04-01T03:31:41;0.60;;;0.30;;
20065;SDS011;10193;48.884;9.182;2023-04-01T03:34:08;0.30;;;0.20;;
20065;SDS011;10193;48.884;9.182;2023-04-01T03:36:35;0.20;;;0.20;;
20065;SDS011;10193;48.884;9.182;2023-04-01T03:39:02;0.38;;;0.30;;
20065;SDS011;10193;48.884;9.182;2023-04-01T03:41:29;0.30;;;0.30;;
20065;SDS011;10193;48.884;9.182;2023-04-01T03:43:56;0.30;;;0.30;;
20065;SDS011;10193;48.884;9.182;2023-04-01T03:46:24;0.40;;;0.30;;
20065;SDS011;10193;48.884;9.182;2023-04-01T03:48:51;0.40;;;0.30;;
20065;SDS011;10193;48.884;9.182;2023-04-01T03:51:17;0.35;;;0.35;;
20065;SDS011;10193;48.884;9.182;2023-04-01T03:53:44;0.50;;;0.30;;
20065;SDS011;10193;48.884;9.182;2023-04-01T03:56:11;0.30;;;0.30;;
20065;SDS011;10193;48.884;9.182;2023-04-01T03:58:38;1.67;;;0.30;;
20065;SDS011;10193;48.884;9.182;2023-04-01T04:01:12;0.38;;;0.30;;
20065;SDS011;10193;48.884;9.182;2023-04-01T04:03:41;0.20;;;0.20;;
20065;SDS011;10193;48.884;9.182;2023-04-01T04:06:10;0.32;;;0.30;;
20065;SDS011;10193;48.884;9.182;2023-04-01T04:08:38;0.20;;;0.20;;
20065;SDS011;10193;48.884;9.182;2023-04-01T04:11:05;0.40;;;0.20;;
20065;SDS011;10193;48.884;9.182;2023-04-01T04:13:32;0.32;;;0.20;;
20065;SDS011;10193;48.884;9.182;2023-04-01T04:15:58;0.45;;;0.43;;
20065;SDS011;10193;48.884;9.182;2023-04-01T04:18:25;0.68;;;0.40;;
20065;SDS011;10193;48.884;9.182;2023-04-01T04:20:53;0.65;;;0.25;;
20065;SDS011;10193;48.884;9.182;2023-04-01T04:23:20;1.00;;;0.47;;
20065;SDS011;10193;48.884;9.182;2023-04-01T04:25:53;0.70;;;0.30;;
20065;SDS011;10193;48.884;9.182;2023-04-01T04:28:21;0.30;;;0.20;;
20065;SDS011;10193;48.884;9.182;2023-04-01T04:30:48;0.22;;;0.22;;
20065;SDS011;10193;48.884;9.182;2023-04-01T04:33:14;0.20;;;0.20;;
20065;SDS011;10193;48.884;9.182;2023-04-01T04:35:41;0.90;;;0.50;;
20065;SDS011;10193;48.884;9.182;2023-04-01T04:38:09;0.75;;;0.28;;
20065;SDS011;10193;48.884;9.182;2023-04-01T04:40:36;0.30;;;0.30;;
20065;SDS011;10193;48.884;9.182;2023-04-01T04:43:03;0.63;;;0.30;;
20065;SDS011;10193;48.884;9.182;2023-04-01T04:45:30;0.20;;;0.20;;
20065;SDS011;10193;48.884;9.182;2023-04-01T04:47:56;0.90;;;0.40;;
20065;SDS011;10193;48.884;9.182;2023-04-01T04:50:23;0.50;;;0.40;;
20065;SDS011;10193;48.884;9.182;2023-04-01T04:52:50;0.43;;;0.30;;
20065;SDS011;10193;48.884;9.182;2023-04-01T04:55:18;1.27;;;0.40;;
20065;SDS011;10193;48.884;9.182;2023-04-01T04:57:45;0.40;;;0.15;;
20065;SDS011;10193;48.884;9.182;2023-04-01T05:00:12;0.82;;;0.35;;
20065;SDS011;10193;48.884;9.182;2023-04-01T05:02:39;1.05;;;0.40;;
20065;SDS011;10193;48.884;9.182;2023-04-01T05:05:06;1.23;;;0.35;;
20065;SDS011;10193;48.884;9.182;2023-04-01T05:07:33;1.38;;;0.40;;
20065;SDS011;10193;48.884;9.182;2023-04-01T05:10:00;0.43;;;0.43;;
20065;SDS011;10193;48.884;9.182;2023-04-01T05:12:28;0.30;;;0.30;;
20065;SDS011;10193;48.884;9.182;2023-04-01T05:14:55;0.82;;;0.30;;
20065;SDS011;10193;48.884;9.182;2023-04-01T05:17:22;0.65;;;0.32;;
20065;SDS011;10193;48.884;9.182;2023-04-01T05:19:49;1.23;;;0.43;;
20065;SDS011;10193;48.884;9.182;2023-04-01T05:22:15;0.82;;;0.30;;
20065;SDS011;10193;48.884;9.182;2023-04-01T05:24:42;0.88;;;0.30;;
20065;SDS011;10193;48.884;9.182;2023-04-01T05:27:09;1.33;;;0.40;;
20065;SDS011;10193;48.884;9.182;2023-04-01T05:29:37;0.85;;;0.45;;
20065;SDS011;10193;48.884;9.182;2023-04-01T05:32:04;0.40;;;0.35;;
20065;SDS011;10193;48.884;9.182;2023-04-01T05:34:30;1.58;;;0.32;;
20065;SDS011;10193;48.884;9.182;2023-04-01T05:36:57;0.52;;;0.32;;
20065;SDS011;10193;48.884;9.182;2023-04-01T05:39:23;1.52;;;0.43;;
20065;SDS011;10193;48.884;9.182;2023-04-01T05:41:50;0.73;;;0.35;;
20065;SDS011;10193;48.884;9.182;2023-04-01T05:44:17;1.17;;;0.40;;
20065;SDS011;10193;48.884;9.182;2023-04-01T05:46:45;0.32;;;0.32;;
20065;SDS011;10193;48.884;9.182;2023-04-01T05:49:12;1.55;;;0.50;;
20065;SDS011;10193;48.884;9.182;2023-04-01T05:51:38;1.85;;;0.52;;
20065;SDS011;10193;48.884;9.182;2023-04-01T05:54:05;0.68;;;0.40;;
20065;SDS011;10193;48.884;9.182;2023-04-01T05:56:32;0.90;;;0.50;;
20065;SDS011;10193;48.884;9.182;2023-04-01T05:58:59;0.70;;;0.50;;
20065;SDS011;10193;48.884;9.182;2023-04-01T06:01:25;1.67;;;0.40;;
20065;SDS011;10193;48.884;9.182;2023-04-01T06:03:54;0.63;;;0.40;;
20065;SDS011;10193;48.884;9.182;2023-04-01T06:06:23;0.40;;;0.20;;
20065;SDS011;10193;48.884;9.182;2023-04-01T06:08:51;0.85;;;0.40;;
20065;SDS011;10193;48.884;9.182;2023-04-01T06:11:29;0.55;;;0.25;;
20065;SDS011;10193;48.884;9.182;2023-04-01T06:14:07;1.55;;;0.75;;
20065;SDS011;10193;48.884;9.182;2023-04-01T06:16:46;2.80;;;0.40;;
20065;SDS011;10193;48.884;9.182;2023-04-01T06:19:27;0.65;;;0.40;;
20065;SDS011;10193;48.884;9.182;2023-04-01T06:22:14;0.70;;;0.60;;
20065;SDS011;10193;48.884;9.182;2023-04-01T06:24:52;1.38;;;0.50;;
20065;SDS011;10193;48.884;9.182;2023-04-01T06:27:37;0.40;;;0.40;;
20065;SDS011;10193;48.884;9.182;2023-04-01T06:30:24;0.68;;;0.30;;
20065;SDS011;10193;48.884;9.182;2023-04-01T06:33:09;0.50;;;0.40;;
20065;SDS011;10193;48.884;9.182;2023-04-01T06:36:08;0.40;;;0.22;;
20065;SDS011;10193;48.884;9.182;2023-04-01T06:38:51;1.48;;;0.80;;
20065;SDS011;10193;48.884;9.182;2023-04-01T06:41:51;2.03;;;0.40;;
20065;SDS011;10193;48.884;9.182;2023-04-01T06:44:35;4.07;;;0.63;;
20065;SDS011;10193;48.884;9.182;2023-04-01T06:47:13;1.67;;;0.38;;
20065;SDS011;10193;48.884;9.182;2023-04-01T06:49:51;0.30;;;0.30;;
20065;SDS011;10193;48.884;9.182;2023-04-01T06:52:25;0.30;;;0.30;;
20065;SDS011;10193;48.884;9.182;2023-04-01T06:54:58;0.77;;;0.43;;
20065;SDS011;10193;48.884;9.182;2023-04-01T06:57:36;0.30;;;0.30;;
20065;SDS011;10193;48.884;9.182;2023-04-01T07:00:11;0.77;;;0.32;;
20065;SDS011;10193;48.884;9.182;2023-04-01T07:02:41;1.13;;;0.30;;
20065;SDS011;10193;48.884;9.182;2023-04-01T07:05:18;0.20;;;0.20;;
20065;SDS011;10193;48.884;9.182;2023-04-01T07:07:48;0.47;;;0.30;;
20065;SDS011;10193;48.884;9.182;2023-04-01T07:10:19;0.40;;;0.40;;
20065;SDS011;10193;48.884;9.182;2023-04-01T07:12:49;0.40;;;0.40;;
20065;SDS011;10193;48.884;9.182;2023-04-01T07:15:20;1.05;;;0.40;;
20065;SDS011;10193;48.884;9.182;2023-04-01T07:17:52;0.63;;;0.20;;
20065;SDS011;10193;48.884;9.182;2023-04-01T07:20:23;0.50;;;0.30;;
20065;SDS011;10193;48.884;9.182;2023-04-01T07:22:54;0.47;;;0.35;;
20065;SDS011;10193;48.884;9.182;2023-04-01T07:25:25;1.55;;;0.40;;
20065;SDS011;10193;48.884;9.182;2023-04-01T07:27:55;0.30;;;0.20;;
20065;SDS011;10193;48.884;9.182;2023-04-01T07:30:26;0.63;;;0.30;;
20065;SDS011;10193;48.884;9.182;2023-04-01T07:32:57;0.45;;;0.20;;
20065;SDS011;10193;48.884;9.182;2023-04-01T07:35:33;0.40;;;0.40;;
20065;SDS011;10193;48.884;9.182;2023-04-01T07:38:09;0.70;;;0.30;;
20065;SDS011;10193;48.884;9.182;2023-04-01T07:40:46;0.93;;;0.30;;
20065;SDS011;10193;48.884;9.182;2023-04-01T07:43:28;0.20;;;0.20;;
20065;SDS011;10193;48.884;9.182;2023-04-01T07:46:07;0.40;;;0.40;;
20065;SDS011;10193;48.884;9.182;2023-04-01T07:48:44;0.43;;;0.30;;
20065;SDS011;10193;48.884;9.182;2023-04-01T07:51:18;1.05;;;0.38;;
20065;SDS011;10193;48.884;9.182;2023-04-01T07:53:56;0.38;;;0.30;;
20065;SDS011;10193;48.884;9.182;2023-04-01T07:56:31;0.68;;;0.40;;
20065;SDS011;10193;48.884;9.182;2023-04-01T07:59:03;0.77;;;0.60;;
20065;SDS011;10193;48.884;9.182;2023-04-01T08:01:37;1.10;;;0.30;;
20065;SDS011;10193;48.884;9.182;2023-04-01T08:04:15;0.77;;;0.38;;
20065;SDS011;10193;48.884;9.182;2023-04-01T08:06:52;0.30;;;0.20;;
20065;SDS011;10193;48.884;9.182;2023-04-01T08:09:27;0.50;;;0.32;;
20065;SDS011;10193;48.884;9.182;2023-04-01T08:12:02;1.15;;;0.40;;
20065;SDS011;10193;48.884;9.182;2023-04-01T08:14:39;0.30;;;0.30;;
20065;SDS011;10193;48.884;9.182;2023-04-01T08:17:15;0.50;;;0.30;;
20065;SDS011;10193;48.884;9.182;2023-04-01T08:19:52;0.20;;;0.20;;
20065;SDS011;10193;48.884;9.182;2023-04-01T08:22:26;0.93;;;0.40;;
20065;SDS011;10193;48.884;9.182;2023-04-01T08:24:56;0.73;;;0.30;;
20065;SDS011;10193;48.884;9.182;2023-04-01T08:27:28;0.75;;;0.32;;
20065;SDS011;10193;48.884;9.182;2023-04-01T08:30:02;0.30;;;0.30;;
20065;SDS011;10193;48.884;9.182;2023-04-01T08:32:32;0.52;;;0.35;;
20065;SDS011;10193;48.884;9.182;2023-04-01T08:35:07;0.40;;;0.20;;
20065;SDS011;10193;48.884;9.182;2023-04-01T08:37:40;1.20;;;0.45;;
20065;SDS011;10193;48.884;9.182;2023-04-01T08:40:17;0.32;;;0.25;;
20065;SDS011;10193;48.884;9.182;2023-04-01T08:43:09;1.13;;;0.43;;
20065;SDS011;10193;48.884;9.182;2023-04-01T08:45:49;1.40;;;0.32;;
20065;SDS011;10193;48.884;9.182;2023-04-01T08:48:27;1.65;;;0.30;;
20065;SDS011;10193;48.884;9.182;2023-04-01T08:51:41;0.70;;;0.60;;
20065;SDS011;10193;48.884;9.182;2023-04-01T08:54:37;1.15;;;0.28;;
20065;SDS011;10193;48.884;9.182;2023-04-01T08:57:15;2.50;;;0.50;;
20065;SDS011;10193;48.884;9.182;2023-04-01T08:59:57;0.82;;;0.32;;
20065;SDS011;10193;48.884;9.182;2023-04-01T09:02:42;1.08;;;0.30;;
20065;SDS011;10193;48.884;9.182;2023-04-01T09:05:21;0.35;;;0.30;;
20065;SDS011;10193;48.884;9.182;2023-04-01T09:08:03;0.77;;;0.22;;
20065;SDS011;10193;48.884;9.182;2023-04-01T09:10:56;0.20;;;0.20;;
20065;SDS011;10193;48.884;9.182;2023-04-01T09:13:46;0.20;;;0.20;;
20065;SDS011;10193;48.884;9.182;2023-04-01T09:16:42;0.38;;;0.30;;
20065;SDS011;10193;48.884;9.182;2023-04-01T09:19:28;0.68;;;0.43;;
20065;SDS011;10193;48.884;9.182;2023-04-01T09:25:15;0.20;;;0.20;;
20065;SDS011;10193;48.884;9.182;2023-04-01T09:27:57;0.35;;;0.22;;
20065;SDS011;10193;48.884;9.182;2023-04-01T09:30:42;2.13;;;0.50;;
20065;SDS011;10193;48.884;9.182;2023-04-01T09:36:47;0.47;;;0.30;;
20065;SDS011;10193;48.884;9.182;2023-04-01T09:39:34;0.30;;;0.30;;
20065;SDS011;10193;48.884;9.182;2023-04-01T09:42:15;0.40;;;0.30;;
20065;SDS011;10193;48.884;9.182;2023-04-01T09:45:03;0.10;;;0.10;;
20065;SDS011;10193;48.884;9.182;2023-04-01T09:47:49;0.22;;;0.22;;
20065;SDS011;10193;48.884;9.182;2023-04-01T09:50:31;0.30;;;0.30;;
20065;SDS011;10193;48.884;9.182;2023-04-01T09:53:05;0.30;;;0.30;;
20065;SDS011;10193;48.884;9.182;2023-04-01T09:55:50;0.20;;;0.20;;
20065;SDS011;10193;48.884;9.182;2023-04-01T09:58:49;0.22;;;0.20;;
20065;SDS011;10193;48.884;9.182;2023-04-01T10:05:11;0.40;;;0.40;;
20065;SDS011;10193;48.884;9.182;2023-04-01T10:11:15;0.20;;;0.20;;
20065;SDS011;10193;48.884;9.182;2023-04-01T10:14:07;0.20;;;0.20;;
20065;SDS011;10193;48.884;9.182;2023-04-01T10:17:28;0.20;;;0.20;;
20065;SDS011;10193;48.884;9.182;2023-04-01T10:20:23;0.10;;;0.10;;
20065;SDS011;10193;48.884;9.182;2023-04-01T10:23:18;0.57;;;0.20;;
20065;SDS011;10193;48.884;9.182;2023-04-01T10:29:14;0.10;;;0.10;;
20065;SDS011;10193;48.884;9.182;2023-04-01T10:32:18;0.30;;;0.17;;
20065;SDS011;10193;48.884;9.182;2023-04-01T10:38:26;0.20;;;0.15;;
20065;SDS011;10193;48.884;9.182;2023-04-01T10:41:33;0.20;;;0.20;;
20065;SDS011;10193;48.884;9.182;2023-04-01T10:44:20;0.20;;;0.10;;
20065;SDS011;10193;48.884;9.182;2023-04-01T10:47:26;0.20;;;0.20;;
20065;SDS011;10193;48.884;9.182;2023-04-01T10:50:34;0.20;;;0.20;;
20065;SDS011;10193;48.884;9.182;2023-04-01T10:53:32;0.10;;;0.10;;
20065;SDS011;10193;48.884;9.182;2023-04-01T11:05:30;0.20;;;0.20;;
20065;SDS011;10193;48.884;9.182;2023-04-01T11:11:47;0.20;;;0.20;;
20065;SDS011;10193;48.884;9.182;2023-04-01T11:27:02;0.28;;;0.10;;
20065;SDS011;10193;48.884;9.182;2023-04-01T11:29:39;0.20;;;0.20;;
20065;SDS011;10193;48.884;9.182;2023-04-01T11:32:34;0.82;;;0.10;;
20065;SDS011;10193;48.884;9.182;2023-04-01T11:38:24;0.20;;;0.20;;
20065;SDS011;10193;48.884;9.182;2023-04-01T11:40:59;0.10;;;0.10;;
20065;SDS011;10193;48.884;9.182;2023-04-01T11:43:38;0.90;;;0.30;;
20065;SDS011;10193;48.884;9.182;2023-04-01T11:46:15;0.13;;;0.13;;
20065;SDS011;10193;48.884;9.182;2023-04-01T11:48:51;0.10;;;0.10;;
20065;SDS011;10193;48.884;9.182;2023-04-01T11:51:30;0.10;;;0.10;;
20065;SDS011;10193;48.884;9.182;2023-04-01T11:54:11;0.10;;;0.10;;
20065;SDS011;10193;48.884;9.182;2023-04-01T11:56:51;0.10;;;0.10;;
20065;SDS011;10193;48.884;9.182;2023-04-01T11:59:31;0.45;;;0.17;;
20065;SDS011;10193;48.884;9.182;2023-04-01T12:02:16;0.65;;;0.25;;
20065;SDS011;10193;48.884;9.182;2023-04-01T12:04:54;0.10;;;0.10;;
20065;SDS011;10193;48.884;9.182;2023-04-01T12:07:45;0.10;;;0.10;;
20065;SDS011;10193;48.884;9.182;2023-04-01T12:10:26;1.33;;;0.17;;
20065;SDS011;10193;48.884;9.182;2023-04-01T12:12:59;0.15;;;0.10;;
20065;SDS011;10193;48.884;9.182;2023-04-01T12:15:35;0.40;;;0.15;;
20065;SDS011;10193;48.884;9.182;2023-04-01T12:18:15;0.10;;;0.10;;
20065;SDS011;10193;48.884;9.182;2023-04-01T12:20:49;0.00;;;0.00;;
20065;SDS011;10193;48.884;9.182;2023-04-01T12:23:28;0.10;;;0.10;;
20065;SDS011;10193;48.884;9.182;2023-04-01T12:26:32;0.10;;;0.10;;
20065;SDS011;10193;48.884;9.182;2023-04-01T12:29:18;0.10;;;0.10;;
20065;SDS011;10193;48.884;9.182;2023-04-01T12:32:04;0.10;;;0.10;;
20065;SDS011;10193;48.884;9.182;2023-04-01T12:34:49;0.10;;;0.10;;
20065;SDS011;10193;48.884;9.182;2023-04-01T12:37:29;0.10;;;0.10;;
20065;SDS011;10193;48.884;9.182;2023-04-01T12:40:14;0.20;;;0.20;;
20065;SDS011;10193;48.884;9.182;2023-04-01T12:42:58;0.10;;;0.10;;
20065;SDS011;10193;48.884;9.182;2023-04-01T12:46:03;0.10;;;0.10;;
20065;SDS011;10193;48.884;9.182;2023-04-01T12:48:42;0.10;;;0.10;;
20065;SDS011;10193;48.884;9.182;2023-04-01T12:51:46;0.10;;;0.10;;
20065;SDS011;10193;48.884;9.182;2023-04-01T12:54:37;1.23;;;0.20;;
20065;SDS011;10193;48.884;9.182;2023-04-01T12:57:41;0.10;;;0.10;;
20065;SDS011;10193;48.884;9.182;2023-04-01T13:00:27;0.10;;;0.10;;
20065;SDS011;10193;48.884;9.182;2023-04-01T13:03:19;0.10;;;0.10;;
20065;SDS011;10193;48.884;9.182;2023-04-01T13:09:26;0.10;;;0.10;;
20065;SDS011;10193;48.884;9.182;2023-04-01T13:12:07;0.52;;;0.20;;
20065;SDS011;10193;48.884;9.182;2023-04-01T13:14:53;0.15;;;0.10;;
20065;SDS011;10193;48.884;9.182;2023-04-01T13:17:31;0.10;;;0.10;;
20065;SDS011;10193;48.884;9.182;2023-04-01T13:20:03;0.20;;;0.20;;
20065;SDS011;10193;48.884;9.182;2023-04-01T13:22:45;0.10;;;0.10;;
20065;SDS011;10193;48.884;9.182;2023-04-01T13:25:24;0.10;;;0.10;;
20065;SDS011;10193;48.884;9.182;2023-04-01T13:27:58;0.20;;;0.20;;
20065;SDS011;10193;48.884;9.182;2023-04-01T13:30:32;0.32;;;0.10;;
20065;SDS011;10193;48.884;9.182;2023-04-01T13:33:04;0.10;;;0.10;;
20065;SDS011;10193;48.884;9.182;2023-04-01T13:35:43;0.10;;;0.10;;
20065;SDS011;10193;48.884;9.182;2023-04-01T13:38:22;1.10;;;0.10;;
20065;SDS011;10193;48.884;9.182;2023-04-01T13:41:11;0.10;;;0.10;;
20065;SDS011;10193;48.884;9.182;2023-04-01T13:43:47;0.65;;;0.10;;
20065;SDS011;10193;48.884;9.182;2023-04-01T13:46:25;0.10;;;0.10;;
20065;SDS011;10193;48.884;9.182;2023-04-01T13:52:08;0.40;;;0.10;;
20065;SDS011;10193;48.884;9.182;2023-04-01T13:57:56;0.20;;;0.10;;
20065;SDS011;10193;48.884;9.182;2023-04-01T14:00:42;0.10;;;0.10;;
20065;SDS011;10193;48.884;9.182;2023-04-01T14:03:18;0.10;;;0.10;;
20065;SDS011;10193;48.884;9.182;2023-04-01T14:05:56;0.00;;;0.00;;
20065;SDS011;10193;48.884;9.182;2023-04-01T14:08:38;0.10;;;0.10;;
20065;SDS011;10193;48.884;9.182;2023-04-01T14:11:19;0.13;;;0.13;;
20065;SDS011;10193;48.884;9.182;2023-04-01T14:13:56;0.10;;;0.10;;
20065;SDS011;10193;48.884;9.182;2023-04-01T14:19:41;0.10;;;0.10;;
20065;SDS011;10193;48.884;9.182;2023-04-01T14:22:21;0.20;;;0.20;;
20065;SDS011;10193;48.884;9.182;2023-04-01T14:25:03;0.10;;;0.10;;
20065;SDS011;10193;48.884;9.182;2023-04-01T14:27:56;0.47;;;0.10;;
20065;SDS011;10193;48.884;9.182;2023-04-01T14:30:38;0.17;;;0.17;;
20065;SDS011;10193;48.884;9.182;2023-04-01T14:33:18;0.10;;;0.10;;
20065;SDS011;10193;48.884;9.182;2023-04-01T14:35:58;1.17;;;0.10;;
20065;SDS011;10193;48.884;9.182;2023-04-01T14:38:37;0.35;;;0.10;;
20065;SDS011;10193;48.884;9.182;2023-04-01T14:41:18;0.20;;;0.17;;
20065;SDS011;10193;48.884;9.182;2023-04-01T14:50:04;0.10;;;0.10;;
20065;SDS011;10193;48.884;9.182;2023-04-01T14:52:36;0.10;;;0.10;;
20065;SDS011;10193;48.884;9.182;2023-04-01T14:55:11;0.10;;;0.10;;
20065;SDS011;10193;48.884;9.182;2023-04-01T14:57:57;0.70;;;0.20;;
20065;SDS011;10193;48.884;9.182;2023-04-01T15:00:26;0.10;;;0.10;;
20065;SDS011;10193;48.884;9.182;2023-04-01T15:02:57;0.10;;;0.10;;
20065;SDS011;10193;48.884;9.182;2023-04-01T15:05:32;0.20;;;0.20;;
20065;SDS011;10193;48.884;9.182;2023-04-01T15:08:11;0.20;;;0.20;;
20065;SDS011;10193;48.884;9.182;2023-04-01T15:10:52;0.10;;;0.10;;
20065;SDS011;10193;48.884;9.182;2023-04-01T15:13:46;0.10;;;0.10;;
20065;SDS011;10193;48.884;9.182;2023-04-01T15:16:37;0.10;;;0.10;;
20065;SDS011;10193;48.884;9.182;2023-04-01T15:19:15;0.10;;;0.10;;
20065;SDS011;10193;48.884;9.182;2023-04-01T15:21:58;0.60;;;0.20;;
20065;SDS011;10193;48.884;9.182;2023-04-01T15:24:35;0.20;;;0.20;;
20065;SDS011;10193;48.884;9.182;2023-04-01T15:27:23;0.17;;;0.17;;
20065;SDS011;10193;48.884;9.182;2023-04-01T15:30:05;0.20;;;0.20;;
20065;SDS011;10193;48.884;9.182;2023-04-01T15:32:46;0.10;;;0.10;;
20065;SDS011;10193;48.884;9.182;2023-04-01T15:35:25;0.20;;;0.20;;
20065;SDS011;10193;48.884;9.182;2023-04-01T15:38:02;0.15;;;0.15;;
20065;SDS011;10193;48.884;9.182;2023-04-01T15:40:34;0.10;;;0.10;;
20065;SDS011;10193;48.884;9.182;2023-04-01T15:43:12;0.10;;;0.10;;
20065;SDS011;10193;48.884;9.182;2023-04-01T15:45:49;0.10;;;0.10;;
20065;SDS011;10193;48.884;9.182;2023-04-01T15:48:23;0.10;;;0.10;;
20065;SDS011;10193;48.884;9.182;2023-04-01T15:51:13;0.40;;;0.20;;
20065;SDS011;10193;48.884;9.182;2023-04-01T15:53:56;0.20;;;0.20;;
20065;SDS011;10193;48.884;9.182;2023-04-01T15:56:41;0.55;;;0.25;;
20065;SDS011;10193;48.884;9.182;2023-04-01T15:59:21;0.30;;;0.20;;
20065;SDS011;10193;48.884;9.182;2023-04-01T16:02:07;0.10;;;0.10;;
20065;SDS011;10193;48.884;9.182;2023-04-01T16:04:46;0.20;;;0.20;;
20065;SDS011;10193;48.884;9.182;2023-04-01T16:07:27;0.20;;;0.17;;
20065;SDS011;10193;48.884;9.182;2023-04-01T16:10:09;0.28;;;0.28;;
20065;SDS011;10193;48.884;9.182;2023-04-01T16:12:49;0.20;;;0.20;;
20065;SDS011;10193;48.884;9.182;2023-04-01T16:15:24;0.20;;;0.20;;
20065;SDS011;10193;48.884;9.182;2023-04-01T16:18:08;0.28;;;0.28;;
20065;SDS011;10193;48.884;9.182;2023-04-01T16:20:53;0.22;;;0.20;;
20065;SDS011;10193;48.884;9.182;2023-04-01T16:23:26;0.35;;;0.30;;
20065;SDS011;10193;48.884;9.182;2023-04-01T16:26:01;0.20;;;0.20;;
20065;SDS011;10193;48.884;9.182;2023-04-01T16:28:32;0.22;;;0.20;;
20065;SDS011;10193;48.884;9.182;2023-04-01T16:31:05;0.20;;;0.20;;
20065;SDS011;10193;48.884;9.182;2023-04-01T16:33:37;0.30;;;0.30;;
20065;SDS011;10193;48.884;9.182;2023-04-01T16:36:12;0.30;;;0.20;;
20065;SDS011;10193;48.884;9.182;2023-04-01T16:38:50;0.30;;;0.20;;
20065;SDS011;10193;48.884;9.182;2023-04-01T16:41:23;0.22;;;0.22;;
20065;SDS011;10193;48.884;9.182;2023-04-01T16:43:56;0.40;;;0.20;;
20065;SDS011;10193;48.884;9.182;2023-04-01T16:46:34;0.28;;;0.20;;
20065;SDS011;10193;48.884;9.182;2023-04-01T16:52:03;0.13;;;0.13;;
20065;SDS011;10193;48.884;9.182;2023-04-01T16:54:42;0.47;;;0.20;;
20065;SDS011;10193;48.884;9.182;2023-04-01T16:57:18;0.38;;;0.32;;